Flight Track Log - Related Links

Times and Time Zones

All times are in EDT time to prevent confusion due to time zone crossing. See the N712WB flight status page for this flight to view local times or setup timezone preferences in your user account.

Time Position Orientation Groundspeed Altitude Reporting Facility
EDT Latitude Longitude Course Direction KTS MPH feet Rate Location/Type
Wed 02:46:31 PM 36.5833 -121.8000 90° East 194 223 1,500  Level Northern Cal TRACON
Wed 02:47:31 PM 36.6333 -121.7833 15° North 232 267 4,000 2,400 Climbing Northern Cal TRACON
Wed 02:48:31 PM 36.6833 -121.7333 39° Northeast 297 342 6,300 2,400 Climbing Northern Cal TRACON
Wed 02:49:31 PM 36.6833 -121.6167 90° East 303 349 8,800 2,286 Climbing Northern Cal TRACON
Wed 02:50:16 PM 36.6819 -121.5528 92° East 302 348 10,300 1,514 Climbing Oakland Center
Wed 02:51:18 PM 36.6867 -121.4372 87° East 324 373 11,500 1,268 Climbing Oakland Center
Wed 02:52:00 PM 36.6500 -120.8208 90° East  Level FlightAware Approximate
Wed 02:52:19 PM 36.6919 -121.3083 87° East 360 414 12,900  Level Oakland Center
Wed 02:53:21 PM 36.6986 -121.1742 86° East 381 438 14,600 1,610 Climbing Oakland Center
Wed 02:54:22 PM 36.7039 -121.0383 87° East 387 445 16,200 1,415 Climbing Oakland Center
Wed 02:55:24 PM 36.7008 -120.9006 92° East 396 456 17,500 1,366 Climbing Oakland Center
Wed 02:56:25 PM 36.6989 -120.7269 91° East 412 474 19,000 1,415 Climbing Oakland Center
Wed 02:57:27 PM 36.6964 -120.5803 91° East 417 480 20,400 1,463 Climbing Oakland Center
Wed 02:58:28 PM 36.6936 -120.4306 91° East 428 493 22,000 1,463 Climbing Oakland Center
Wed 02:59:30 PM 36.6908 -120.2764 91° East 433 498 23,400 1,366 Climbing Oakland Center
Wed 03:00:31 PM 36.6872 -120.1219 92° East 443 510 24,800 1,366 Climbing Oakland Center
Wed 03:01:33 PM 36.6836 -119.9614 92° East 453 521 26,200 1,366 Climbing Oakland Center
Wed 03:02:34 PM 36.6794 -119.7983 92° East 463 533 27,600 1,512 Climbing Oakland Center
Wed 03:03:36 PM 36.6756 -119.6347 92° East 470 541 29,300 1,415 Climbing Oakland Center
Wed 03:04:37 PM 36.6711 -119.4689 92° East 472 543 30,500 1,268 Climbing Oakland Center
Wed 03:05:39 PM 36.6656 -119.2647 92° East 487 560 31,900 1,317 Climbing Oakland Center
Wed 03:06:40 PM 36.6606 -119.0881 92° East 502 578 33,200 1,171 Climbing Oakland Center
Wed 03:07:42 PM 36.6539 -118.9092 93° East 511 588 34,300 1,317 Climbing Oakland Center
Wed 03:08:43 PM 36.6500 -118.7300 91° East 514 592 35,900 1,366 Climbing Oakland Center
Wed 03:09:45 PM 36.6450 -118.5525 92° East 514 592 37,100 1,561 Climbing Oakland Center
Wed 03:10:46 PM 36.6378 -118.3483 92° East 515 593 39,100 1,610 Climbing Oakland Center
Wed 03:11:48 PM 36.6300 -118.1711 93° East 515 593 40,400 927 Climbing Oakland Center
Wed 03:12:49 PM 36.6242 -117.9939 92° East 515 593 41,000 293 Climbing Oakland Center
Wed 03:13:51 PM 36.6161 -117.8125 93° East 519 597 41,000  Level Oakland Center
Wed 03:14:52 PM 36.6075 -117.6219 93° East 541 623 41,000  Level Oakland Center
Wed 03:15:54 PM 36.5981 -117.4269 93° East 559 643 41,000  Level Oakland Center
Wed 03:16:55 PM 36.5897 -117.2356 93° East 560 644 41,000  Level Oakland Center
Wed 03:17:57 PM 36.5814 -117.0431 93° East 559 643 41,000  Level Oakland Center
Wed 03:18:58 PM 36.5703 -116.8119 93° East 559 643 41,000  Level Oakland Center
Wed 03:20:00 PM 36.5317 -116.6258 104° East 558 642 41,000  Level Oakland Center
Wed 03:21:23 PM 36.4586 -116.3764 110° East 562 647 41,000  Level Los Angeles Center
Wed 03:22:25 PM 36.4025 -116.1903 110° East 562 647 41,000  Level Los Angeles Center
Wed 03:23:27 PM 36.3472 -116.0150 111° Southeast 554 638 41,000  Level Los Angeles Center
Wed 03:24:29 PM 36.2944 -115.8417 111° Southeast 555 639 41,000  Level Los Angeles Center
Wed 03:25:31 PM 36.2269 -115.6300 112° Southeast 562 647 41,000  Level Los Angeles Center
Wed 03:26:34 PM 36.1767 -115.4508 109° East 574 661 41,000  Level Los Angeles Center
Wed 03:27:36 PM 36.1231 -115.2736 110° East 560 644 41,000  Level Los Angeles Center
Wed 03:28:38 PM 36.0658 -115.0928 111° Southeast 567 652 41,000  Level Los Angeles Center
Wed 03:29:41 PM 35.9994 -114.8778 111° Southeast 563 648 41,000  Level Los Angeles Center
Wed 03:30:42 PM 35.9586 -114.6925 105° East 560 644 41,000  Level Los Angeles Center
Wed 03:31:44 PM 35.9194 -114.5064 105° East 560 644 41,000  Level Los Angeles Center
Wed 03:32:46 PM 35.8789 -114.3219 105° East 559 643 41,000  Level Los Angeles Center
Wed 03:33:48 PM 35.8397 -114.1364 105° East 558 642 41,000  Level Los Angeles Center
Wed 03:34:50 PM 35.7989 -113.9522 105° East 556 640 41,000  Level Los Angeles Center
Wed 03:35:53 PM 35.7511 -113.7303 105° East 557 641 41,000  Level Los Angeles Center
Wed 03:36:55 PM 35.7092 -113.5436 105° East 556 640 41,000  Level Los Angeles Center
Wed 03:37:57 PM 35.6681 -113.3589 105° East 557 641 41,000  Level Los Angeles Center
Wed 03:38:59 PM 35.6272 -113.1781 105° East 558 642 41,000  Level Los Angeles Center
Wed 03:40:01 PM 35.5861 -112.9958 105° East 556 640 41,000  Level Los Angeles Center
Wed 03:41:03 PM 35.5414 -112.8017 106° East 557 641 41,000  Level Los Angeles Center
Wed 03:42:05 PM 35.4981 -112.6122 106° East 555 639 41,000  Level Los Angeles Center
Wed 03:43:07 PM 35.4547 -112.4261 106° East 562 647 41,000  Level Los Angeles Center
Wed 03:44:09 PM 35.4114 -112.2447 106° East 558 642 41,000  Level Los Angeles Center
Wed 03:45:11 PM 35.3606 -112.0258 106° East 558 642 41,000  Level Los Angeles Center
Wed 03:46:13 PM 35.3169 -111.8481 107° East 550 633 41,000  Level Los Angeles Center
Wed 03:47:15 PM 35.2850 -111.6669 102° East 545 627 41,000  Level Los Angeles Center
Wed 03:48:08 PM 35.2636 -111.5003 99° East 543 625 41,000  Level Albuquerque Center
Wed 03:49:10 PM 35.2400 -111.3172 99° East 543 625 41,000  Level Albuquerque Center
Wed 03:50:12 PM 35.2156 -111.1333 99° East 543 625 41,000  Level Albuquerque Center
Wed 03:51:14 PM 35.1897 -110.9314 99° East 545 627 41,000  Level Albuquerque Center
Wed 03:52:16 PM 35.1644 -110.7547 100° East 546 628 41,000  Level Albuquerque Center
Wed 03:53:17 PM 35.1378 -110.5508 99° East 546 628 41,000  Level Albuquerque Center
Wed 03:54:19 PM 35.1131 -110.3750 100° East 547 629 41,000  Level Albuquerque Center
Wed 03:55:21 PM 35.0856 -110.1708 99° East 547 629 41,000  Level Albuquerque Center
Wed 03:56:23 PM 35.0606 -109.9947 100° East 548 631 41,000  Level Albuquerque Center
Wed 03:57:25 PM 35.0358 -109.8203 100° East 548 631 41,000  Level Albuquerque Center
Wed 03:58:26 PM 35.0067 -109.6172 100° East 548 631 41,000  Level Albuquerque Center
Wed 03:59:28 PM 34.9814 -109.4433 100° East 548 631 41,000  Level Albuquerque Center
Wed 04:00:30 PM 34.9517 -109.2414 100° East 548 631 41,000  Level Albuquerque Center
Wed 04:01:32 PM 34.9264 -109.0694 100° East 546 628 41,000  Level Albuquerque Center
Wed 04:02:34 PM 34.8969 -108.8697 100° East 544 626 41,000  Level Albuquerque Center
Wed 04:03:36 PM 34.8708 -108.6972 100° East 544 626 41,000  Level Albuquerque Center
Wed 04:04:37 PM 34.8397 -108.4978 101° East 543 625 41,000  Level Albuquerque Center
Wed 04:05:39 PM 34.8122 -108.3250 101° East 543 625 41,000  Level Albuquerque Center
Wed 04:06:41 PM 34.7817 -108.1272 101° East 543 625 41,000  Level Albuquerque Center
Wed 04:07:43 PM 34.7511 -107.9489 102° East 542 624 41,000  Level Albuquerque Center
Wed 04:08:45 PM 34.7111 -107.7736 105° East 542 624 41,000  Level Albuquerque Center
Wed 04:09:47 PM 34.6672 -107.5997 107° East 542 624 41,000  Level Albuquerque Center
Wed 04:10:49 PM 34.6178 -107.3944 106° East 543 625 41,000  Level Albuquerque Center
Wed 04:11:50 PM 34.5786 -107.2331 106° East 543 625 41,000  Level Albuquerque Center
Wed 04:12:52 PM 34.5303 -107.0444 107° East 543 625 41,000  Level Albuquerque Center
Wed 04:13:54 PM 34.4833 -106.8561 107° East 544 626 41,000 387 Level Albuquerque Center
Wed 04:14:56 PM 34.4386 -106.6822 107° East 544 626 41,800 732 Climbing Albuquerque Center
Wed 04:15:57 PM 34.3983 -106.5253 107° East 535 616 42,500 732 Climbing Albuquerque Center
Wed 04:16:59 PM 34.3553 -106.3547 107° East 534 615 43,300 823 Climbing Albuquerque Center
Wed 04:18:01 PM 34.3064 -106.1700 108° East 525 604 44,200 774 Climbing Albuquerque Center
Wed 04:19:03 PM 34.2639 -106.0047 107° East 518 596 44,900 387 Climbing Albuquerque Center
Wed 04:20:05 PM 34.2197 -105.8381 108° East 517 595 45,000 48 Climbing Albuquerque Center
Wed 04:21:07 PM 34.1694 -105.6425 107° East 517 595 45,000  Level Albuquerque Center
Wed 04:22:09 PM 34.1247 -105.4722 108° East 523 602 45,000  Level Albuquerque Center
Wed 04:23:10 PM 34.0783 -105.3019 108° East 525 604 45,000  Level Albuquerque Center
Wed 04:24:12 PM 34.0328 -105.1292 108° East 531 611 45,000  Level Albuquerque Center
Wed 04:25:14 PM 33.9858 -104.9542 108° East 533 613 45,000  Level Albuquerque Center
Wed 04:26:16 PM 33.9361 -104.7711 108° East 533 613 45,000  Level Albuquerque Center
Wed 04:27:18 PM 33.8897 -104.6006 108° East 533 613 45,000  Level Albuquerque Center
Wed 04:28:19 PM 33.8428 -104.4292 108° East 533 613 45,000  Level Albuquerque Center
Wed 04:29:21 PM 33.7931 -104.2464 108° East 534 615 45,000  Level Albuquerque Center
Wed 04:30:23 PM 33.7464 -104.0781 108° East 533 613 45,000  Level Albuquerque Center
Wed 04:31:24 PM 33.6992 -103.9072 108° East 533 613 45,000  Level Albuquerque Center
Wed 04:32:26 PM 33.6469 -103.7256 109° East 533 613 45,000  Level Albuquerque Center
Wed 04:33:28 PM 33.6081 -103.5811 108° East 533 613 45,000  Level Albuquerque Center
Wed 04:34:30 PM 33.5606 -103.4136 109° East 533 613 45,000  Level Albuquerque Center
Wed 04:35:31 PM 33.5031 -103.2125 109° East 532 612 45,000  Level Albuquerque Center
Wed 04:36:33 PM 33.4547 -103.0458 109° East 532 612 45,000  Level Albuquerque Center
Wed 04:37:50 PM 33.3947 -102.8478 110° East 529 609 45,000  Level Fort Worth Center
Wed 04:38:52 PM 33.3464 -102.6786 109° East 532 612 45,000  Level Fort Worth Center
Wed 04:39:54 PM 33.2969 -102.5094 109° East 535 616 45,000  Level Fort Worth Center
Wed 04:40:56 PM 33.2472 -102.3428 110° East 534 615 45,000  Level Fort Worth Center
Wed 04:41:59 PM 33.1883 -102.1406 109° East 535 616 45,000  Level Fort Worth Center
Wed 04:43:01 PM 33.1378 -101.9758 110° East 532 612 45,000  Level Fort Worth Center
Wed 04:44:03 PM 33.0883 -101.8108 110° East 528 608 45,000  Level Fort Worth Center
Wed 04:45:05 PM 33.0389 -101.6472 110° East 523 602 45,000  Level Fort Worth Center
Wed 04:46:07 PM 32.9897 -101.4847 110° East 523 602 45,000  Level Fort Worth Center
Wed 04:47:09 PM 32.9367 -101.3100 110° East 523 602 45,000  Level Fort Worth Center
Wed 04:48:12 PM 32.8861 -101.1483 110° East 523 602 45,000  Level Fort Worth Center
Wed 04:49:14 PM 32.8367 -100.9878 110° East 521 600 45,000  Level Fort Worth Center
Wed 04:50:16 PM 32.7758 -100.7956 111° Southeast 520 598 45,000  Level Fort Worth Center
Wed 04:51:18 PM 32.7267 -100.6364 110° East 516 594 45,000  Level Fort Worth Center
Wed 04:52:20 PM 32.6767 -100.4789 111° Southeast 514 592 45,000  Level Fort Worth Center
Wed 04:53:22 PM 32.6267 -100.3194 110° East 514 592 45,000  Level Fort Worth Center
Wed 04:54:25 PM 32.5753 -100.1611 111° Southeast 517 595 45,000  Level Fort Worth Center
Wed 04:55:27 PM 32.5133 -99.9717 111° Southeast 520 598 45,000  Level Fort Worth Center
Wed 04:56:29 PM 32.4658 -99.8136 110° East 521 600 45,000  Level Fort Worth Center
Wed 04:57:31 PM 32.4306 -99.6525 105° East 514 592 45,000  Level Fort Worth Center
Wed 04:58:33 PM 32.3925 -99.4933 106° East 510 587 45,000  Level Fort Worth Center
Wed 04:59:36 PM 32.3475 -99.3011 105° East 509 586 45,000  Level Fort Worth Center
Wed 05:01:12 PM 32.2900 -99.0525 105° East 511 588 45,000  Level Houston Center
Wed 05:02:14 PM 32.2503 -98.8928 106° East 511 588 45,000  Level Houston Center
Wed 05:03:16 PM 32.2122 -98.7328 106° East 510 587 45,000  Level Houston Center
Wed 05:04:18 PM 32.1731 -98.5736 106° East 507 583 45,000  Level Houston Center
Wed 05:05:20 PM 32.1256 -98.3814 106° East 508 585 45,000  Level Houston Center
Wed 05:06:23 PM 32.0861 -98.2206 106° East 508 585 45,000  Level Houston Center
Wed 05:07:25 PM 32.0458 -98.0606 107° East 509 586 45,000  Level Houston Center
Wed 05:08:27 PM 32.0078 -97.8958 105° East 517 595 45,000  Level Houston Center
Wed 05:09:29 PM 31.9658 -97.7358 107° East 516 594 45,000  Level Houston Center
Wed 05:10:31 PM 31.9253 -97.5761 107° East 511 588 45,000  Level Houston Center
Wed 05:11:34 PM 31.8756 -97.3842 107° East 510 587 45,000  Level Houston Center
Wed 05:12:36 PM 31.8347 -97.2236 107° East 510 587 45,000  Level Houston Center
Wed 05:13:38 PM 31.7933 -97.0628 107° East 511 588 45,000  Level Houston Center
Wed 05:14:40 PM 31.7525 -96.9008 106° East 512 589 45,000  Level Houston Center
Wed 05:15:43 PM 31.7100 -96.7419 107° East 511 588 45,000  Level Houston Center
Wed 05:16:45 PM 31.6686 -96.5833 107° East 509 586 45,000  Level Houston Center
Wed 05:17:47 PM 31.6181 -96.3906 107° East 512 589 45,000  Level Houston Center
Wed 05:18:49 PM 31.5747 -96.2308 108° East 513 590 45,000 -48 Level Houston Center
Wed 05:19:51 PM 31.5336 -96.0769 107° East 512 589 44,900  Descending Houston Center
Wed 05:20:54 PM 31.4931 -95.9214 107° East 507 583 45,000 48 Climbing Houston Center
Wed 05:21:56 PM 31.4506 -95.7647 108° East 504 580 45,000 -48 Level Houston Center
Wed 05:22:58 PM 31.3983 -95.5772 108° East 506 582 44,900  Descending Houston Center
Wed 05:24:00 PM 31.3553 -95.4211 108° East 507 583 45,000 48 Climbing Houston Center
Wed 05:25:02 PM 31.3142 -95.2678 107° East 500 575 45,000  Level Houston Center
Wed 05:26:05 PM 31.2725 -95.1172 108° East 495 570 45,000  Level Houston Center
Wed 05:27:07 PM 31.2308 -94.9669 108° East 492 566 45,000  Level Houston Center
Wed 05:28:09 PM 31.1803 -94.7842 108° East 494 568 45,000  Level Houston Center
Wed 05:29:11 PM 31.1489 -94.6347 104° East 505 581 45,000  Level Houston Center
Wed 05:30:14 PM 31.1292 -94.4758 98° East 508 585 45,000  Level Houston Center
Wed 05:31:16 PM 31.1042 -94.2833 99° East 508 585 45,000  Level Houston Center
Wed 05:32:18 PM 31.0825 -94.1217 99° East 509 586 45,000  Level Houston Center
Wed 05:33:20 PM 31.0597 -93.9597 99° East 510 587 45,000  Level Houston Center
Wed 05:34:22 PM 31.0358 -93.7814 99° East 510 587 45,000  Level Houston Center
Wed 05:35:24 PM 31.0128 -93.6175 99° East 511 588 45,000  Level Houston Center
Wed 05:36:27 PM 30.9897 -93.4533 99° East 512 589 45,000  Level Houston Center
Wed 05:37:29 PM 30.9658 -93.2889 100° East 512 589 45,000  Level Houston Center
Wed 05:38:31 PM 30.9417 -93.1258 100° East 512 589 45,000  Level Houston Center
Wed 05:39:33 PM 30.9156 -92.9475 100° East 513 590 45,000 -336 Level Houston Center
Wed 05:40:36 PM 30.8919 -92.7850 100° East 514 592 44,300 -1,584 Descending Houston Center
Wed 05:41:38 PM 30.8681 -92.6228 100° East 513 590 41,700 -2,952 Descending Houston Center
Wed 05:42:40 PM 30.8383 -92.4247 100° East 519 597 38,200 -3,097 Descending Houston Center
Wed 05:43:42 PM 30.8375 -92.2553 90° East 537 618 35,300 -3,097 Descending Houston Center
Wed 05:44:44 PM 30.8489 -92.0858 85° East 535 616 31,800 -2,880 Descending Houston Center
Wed 05:45:47 PM 30.8639 -91.9269 84° East 503 579 29,300 -2,256 Descending Houston Center
Wed 05:46:49 PM 30.9039 -91.7492 75° East 478 550 27,100 -1,161 Descending Houston Center
Wed 05:47:51 PM 30.9381 -91.6039 75° East 472 543 26,900 -1,790 Descending Houston Center
Wed 05:48:53 PM 30.9683 -91.4597 76° East 466 536 23,400 -3,726 Descending Houston Center
Wed 05:49:55 PM 31.0011 -91.3147 75° East 466 536 19,200 -3,744 Descending Houston Center
Wed 05:50:58 PM 31.0272 -91.1906 76° East 422 486 15,600 -3,552 Descending Houston Center
Wed 05:52:00 PM 31.0058 -91.0519 100° East 369 425 11,800 -2,806 Descending Houston Center
Wed 05:53:02 PM 30.9661 -90.9547 115° Southeast 335 386 9,800 -1,742 Descending Houston Center
Wed 05:54:04 PM 30.9242 -90.8636 118° Southeast 323 372 8,200 -1,597 Descending Houston Center
Wed 05:55:06 PM 30.8908 -90.7728 113° Southeast 311 358 6,500 -1,422 Descending Houston Center
Wed 05:56:19 PM 30.8422 -90.6619 117° Southeast 276 318 5,000 -1,075 Descending Houston Center
Wed 05:57:20 PM 30.7928 -90.6056 136° Southeast 249 287 4,100 -1,082 Descending Houston Center
Wed 05:58:21 PM 30.7328 -90.5569 145° Southeast 262 302 2,800 -991 Descending Houston Center
Wed 05:59:15 PM 30.6792 -90.5222 151° Southeast 258 297 2,200 -667 Descending Houston Center

Login

Don't have an account? Register now (free) for customized features, flight alerts, and more!